West Lake — 3FHS5 — position and weather

sailwx.info

Track history (hours):
 
Tides and Currents Weather Stations Pressure Air Temp Water Temp Dewpoint Dewpoint Depression Visibility Wind Speed Wind Dir Waves Ship Positions

West Lake

Last reported at 2017-May-23 20:40 UTC. Time now 2017-May-30 01:27 UTC.
Position S 28°09' E 033°01'.

Length 188 m; draft 6.1 m.

Type: Cargo ship. MMSI: 355304000.

Date/timePositionNaut miles runAvg speedWind from/ knotsBaromVisibWave heightAir tempDewpointWater temp
2017-May-23 20:40S 28°09' E 033°01'212.4
2017-May-23 20:30S 28°11' E 032°60'612.4
2017-May-23 20:00S 28°16' E 032°56'612.3
2017-May-23 19:30S 28°21' E 032°52'612.1
2017-May-23 19:01S 28°26' E 032°49'611.9
2017-May-23 18:30S 28°31' E 032°45'611.8
2017-May-23 18:00S 28°36' E 032°41'611.7
2017-May-23 17:30S 28°41' E 032°38'611.7
2017-May-23 17:01S 28°46' E 032°34'611.7
2017-May-23 16:31S 28°51' E 032°31'611.6
2017-May-23 16:00S 28°56' E 032°28'611.2
2017-May-23 15:30S 29°01' E 032°24'611.7
2017-May-23 15:00S 29°06' E 032°20'612.2
2017-May-23 14:31S 29°10' E 032°16'1413.6
2017-May-23 13:30S 29°21' E 032°06'713.6
2017-May-23 13:00S 29°26' E 032°01'713.5
2017-May-23 12:31S 29°32' E 031°56'713.8
2017-May-23 12:01S 29°37' E 031°52'713.9
2017-May-23 11:30S 29°43' E 031°47'714.2
2017-May-23 11:00S 29°48' E 031°42'714.1
2017-May-23 10:29S 29°54' E 031°37'714.1
2017-May-23 10:00S 29°60' E 031°32'714.2
2017-May-23 09:31S 30°05' E 031°27'713.9
2017-May-23 09:01S 30°11' E 031°22'713.6
2017-May-23 08:31S 30°16' E 031°17'714.0
2017-May-23 08:00S 30°22' E 031°12'713.9
2017-May-23 07:30S 30°27' E 031°08'713.7
2017-May-23 07:01S 30°33' E 031°03'713.6
2017-May-23 06:31S 30°38' E 030°58'713.4
2017-May-23 06:01S 30°43' E 030°53'713.3
2017-May-23 05:31S 30°49' E 030°48'612.8
2017-May-23 05:00S 30°54' E 030°44'612.6
2017-May-23 04:31S 30°59' E 030°40'612.7
2017-May-23 04:00S 31°04' E 030°35'712.5
2017-May-23 03:27S 31°09' E 030°30'1012.4
2017-May-23 02:38S 31°17' E 030°22'112.2
2017-May-23 02:30S 31°18' E 030°21'612.1
2017-May-23 02:01S 31°23' E 030°16'611.8
2017-May-23 01:30S 31°27' E 030°12'  
Track history (hours):
 
Tides and Currents Weather Stations Pressure Air Temp Water Temp Dewpoint Dewpoint Depression Visibility Wind Speed Wind Dir Waves Ship Positions

West Lake

Last reported at 2017-May-23 20:40 UTC. Time now 2017-May-30 01:27 UTC.
Position S 28°09' E 033°01'.

Length 188 m; draft 6.1 m.

Type: Cargo ship. MMSI: 355304000.

Date/timePositionNaut miles runAvg speedWind from/ knotsBaromVisibWave heightAir tempDewpointWater temp
2017-May-23 20:40S 28°09' E 033°01'212.4
2017-May-23 20:30S 28°11' E 032°60'612.4
2017-May-23 20:00S 28°16' E 032°56'612.3
2017-May-23 19:30S 28°21' E 032°52'612.1
2017-May-23 19:01S 28°26' E 032°49'611.9
2017-May-23 18:30S 28°31' E 032°45'611.8
2017-May-23 18:00S 28°36' E 032°41'611.7
2017-May-23 17:30S 28°41' E 032°38'611.7
2017-May-23 17:01S 28°46' E 032°34'611.7
2017-May-23 16:31S 28°51' E 032°31'611.6
2017-May-23 16:00S 28°56' E 032°28'611.2
2017-May-23 15:30S 29°01' E 032°24'611.7
2017-May-23 15:00S 29°06' E 032°20'612.2
2017-May-23 14:31S 29°10' E 032°16'1413.6
2017-May-23 13:30S 29°21' E 032°06'713.6
2017-May-23 13:00S 29°26' E 032°01'713.5
2017-May-23 12:31S 29°32' E 031°56'713.8
2017-May-23 12:01S 29°37' E 031°52'713.9
2017-May-23 11:30S 29°43' E 031°47'714.2
2017-May-23 11:00S 29°48' E 031°42'714.1
2017-May-23 10:29S 29°54' E 031°37'714.1
2017-May-23 10:00S 29°60' E 031°32'714.2
2017-May-23 09:31S 30°05' E 031°27'713.9
2017-May-23 09:01S 30°11' E 031°22'713.6
2017-May-23 08:31S 30°16' E 031°17'714.0
2017-May-23 08:00S 30°22' E 031°12'713.9
2017-May-23 07:30S 30°27' E 031°08'713.7
2017-May-23 07:01S 30°33' E 031°03'713.6
2017-May-23 06:31S 30°38' E 030°58'713.4
2017-May-23 06:01S 30°43' E 030°53'713.3
2017-May-23 05:31S 30°49' E 030°48'612.8
2017-May-23 05:00S 30°54' E 030°44'612.6
2017-May-23 04:31S 30°59' E 030°40'612.7
2017-May-23 04:00S 31°04' E 030°35'712.5
2017-May-23 03:27S 31°09' E 030°30'1012.4
2017-May-23 02:38S 31°17' E 030°22'112.2
2017-May-23 02:30S 31°18' E 030°21'612.1
2017-May-23 02:01S 31°23' E 030°16'611.8
2017-May-23 01:30S 31°27' E 030°12'  

Dump ship's entire track history